createdAt,value
2022-08-25T00:01:58.458Z,15.77
2022-08-25T00:04:29.777Z,15.70
2022-08-25T00:07:02.213Z,15.65
2022-08-25T00:09:32.015Z,15.61
2022-08-25T00:11:59.294Z,15.57
2022-08-25T00:14:30.389Z,15.54
2022-08-25T00:16:57.620Z,15.51
2022-08-25T00:19:28.693Z,15.49
2022-08-25T00:21:56.188Z,15.49
2022-08-25T00:24:24.628Z,15.48
2022-08-25T00:26:55.122Z,15.46
2022-08-25T00:29:23.516Z,15.42
2022-08-25T00:31:51.142Z,15.40
2022-08-25T00:34:22.757Z,15.38
2022-08-25T00:36:51.792Z,15.36
2022-08-25T00:39:21.250Z,15.35
2022-08-25T00:41:50.439Z,15.33
2022-08-25T00:44:18.974Z,15.30
2022-08-25T00:46:55.010Z,15.26
2022-08-25T00:49:49.857Z,15.24
2022-08-25T00:52:19.314Z,15.22
2022-08-25T00:55:09.327Z,15.21
2022-08-25T00:57:43.447Z,15.19
2022-08-25T01:00:24.380Z,15.19
2022-08-25T01:02:51.878Z,15.19
2022-08-25T01:05:19.710Z,15.18
2022-08-25T01:07:46.883Z,15.15
2022-08-25T01:10:14.116Z,15.15
2022-08-25T01:12:41.515Z,15.13
2022-08-25T01:15:10.476Z,15.12
2022-08-25T01:17:51.481Z,15.12
2022-08-25T01:20:20.655Z,15.13
2022-08-25T01:22:50.923Z,15.12
2022-08-25T01:25:34.329Z,15.09
2022-08-25T01:28:01.236Z,15.08
2022-08-25T01:30:28.168Z,15.09
2022-08-25T01:32:55.026Z,15.07
2022-08-25T01:35:21.793Z,15.04
2022-08-25T01:37:48.597Z,15.04
2022-08-25T01:40:15.440Z,15.04
2022-08-25T01:43:02.346Z,15.01
2022-08-25T01:45:29.801Z,14.99
2022-08-25T01:47:56.954Z,14.96
2022-08-25T01:50:23.885Z,14.93
2022-08-25T01:53:09.161Z,14.91
2022-08-25T01:55:51.838Z,14.85
2022-08-25T01:58:31.768Z,14.84
2022-08-25T02:01:01.848Z,14.84
2022-08-25T02:03:29.670Z,14.85
2022-08-25T02:06:01.458Z,14.83
2022-08-25T02:08:31.204Z,14.82
2022-08-25T02:11:00.169Z,14.80
2022-08-25T02:13:31.583Z,14.76
2022-08-25T02:16:02.589Z,14.72
2022-08-25T02:18:29.706Z,14.68
2022-08-25T02:20:56.591Z,14.61
2022-08-25T02:23:23.448Z,14.55
2022-08-25T02:25:52.290Z,14.51
2022-08-25T02:28:19.182Z,14.49
2022-08-25T02:30:46.131Z,14.48
2022-08-25T02:33:13.701Z,14.49
2022-08-25T02:35:40.489Z,14.48
2022-08-25T02:38:08.351Z,14.47
2022-08-25T02:40:35.305Z,14.46
2022-08-25T02:43:02.350Z,14.45
2022-08-25T02:45:29.844Z,14.44
2022-08-25T02:47:57.039Z,14.46
2022-08-25T02:50:23.764Z,14.43
2022-08-25T02:52:52.333Z,14.44
2022-08-25T02:55:20.172Z,14.43
2022-08-25T02:57:48.327Z,14.42
2022-08-25T03:00:16.477Z,14.40
2022-08-25T03:02:46.892Z,14.38
2022-08-25T03:05:15.833Z,14.36
2022-08-25T03:07:42.974Z,14.34
2022-08-25T03:10:14.846Z,14.34
2022-08-25T03:12:42.124Z,14.30
2022-08-25T03:15:12.806Z,14.28
2022-08-25T03:17:40.857Z,14.26
2022-08-25T03:20:10.931Z,14.26
2022-08-25T03:22:38.235Z,14.25
2022-08-25T03:25:24.450Z,14.25
2022-08-25T03:27:52.126Z,14.21
2022-08-25T03:30:20.052Z,14.19
2022-08-25T03:32:47.325Z,14.17
2022-08-25T03:35:14.668Z,14.15
2022-08-25T03:37:41.757Z,14.12
2022-08-25T03:40:15.412Z,14.10
2022-08-25T03:42:45.423Z,14.07
2022-08-25T03:45:13.718Z,14.04
2022-08-25T03:47:40.769Z,14.02
2022-08-25T03:50:10.135Z,14.02
2022-08-25T03:52:41.790Z,14.01
2022-08-25T03:55:12.215Z,13.99
2022-08-25T03:57:39.580Z,13.98
2022-08-25T04:00:09.109Z,13.96
2022-08-25T04:02:35.946Z,13.93
2022-08-25T04:05:02.900Z,13.92
2022-08-25T04:07:30.895Z,13.90
2022-08-25T04:09:57.612Z,13.87
2022-08-25T04:12:24.807Z,13.88
2022-08-25T04:14:52.751Z,13.87
2022-08-25T04:17:19.576Z,13.85
2022-08-25T04:19:46.473Z,13.82
2022-08-25T04:22:13.379Z,13.80
2022-08-25T04:24:41.526Z,13.80
2022-08-25T04:27:08.460Z,13.78
2022-08-25T04:29:36.423Z,13.77
2022-08-25T04:32:03.595Z,13.76
2022-08-25T04:34:31.510Z,13.74
2022-08-25T04:37:04.086Z,13.74
2022-08-25T04:39:31.102Z,13.75
2022-08-25T04:41:57.968Z,13.75
2022-08-25T04:44:26.552Z,13.72
2022-08-25T04:46:53.586Z,13.72
2022-08-25T04:49:20.295Z,13.71
2022-08-25T04:51:47.245Z,13.66
2022-08-25T04:54:21.865Z,13.65
2022-08-25T04:56:50.644Z,13.62
2022-08-25T04:59:22.666Z,13.61
2022-08-25T05:01:52.384Z,13.58
2022-08-25T05:04:28.320Z,13.56
2022-08-25T05:06:56.804Z,13.55
2022-08-25T05:09:26.047Z,13.52
2022-08-25T05:11:53.691Z,13.50
2022-08-25T05:14:25.633Z,13.49
2022-08-25T05:16:55.349Z,13.45
2022-08-25T05:19:24.063Z,13.43
2022-08-25T05:21:51.495Z,13.42
2022-08-25T05:24:18.914Z,13.41
2022-08-25T05:26:46.044Z,13.38
2022-08-25T05:29:14.827Z,13.38
2022-08-25T05:31:46.993Z,13.36
2022-08-25T05:34:15.209Z,13.38
2022-08-25T05:36:43.696Z,13.38
2022-08-25T05:39:11.155Z,13.38
2022-08-25T05:41:38.707Z,13.37
2022-08-25T05:44:05.771Z,13.37
2022-08-25T05:46:33.312Z,13.37
2022-08-25T05:49:00.413Z,13.40
2022-08-25T05:51:27.364Z,13.41
2022-08-25T05:53:54.278Z,13.41
2022-08-25T05:56:21.404Z,13.43
2022-08-25T05:58:49.561Z,13.43
2022-08-25T06:01:41.083Z,13.44
2022-08-25T06:04:10.630Z,13.45
2022-08-25T06:06:37.638Z,13.46
2022-08-25T06:09:06.694Z,13.46
2022-08-25T06:11:33.699Z,13.47
2022-08-25T06:14:00.548Z,13.49
2022-08-25T06:16:27.343Z,13.52
2022-08-25T06:18:55.581Z,13.53
2022-08-25T06:21:22.446Z,13.55
2022-08-25T06:23:49.540Z,13.57
2022-08-25T06:26:20.714Z,13.58
2022-08-25T06:28:49.784Z,13.61
2022-08-25T06:31:17.781Z,13.63
2022-08-25T06:33:44.857Z,13.62
2022-08-25T06:36:11.664Z,13.64
2022-08-25T06:38:38.673Z,13.66
2022-08-25T06:41:08.404Z,13.68
2022-08-25T06:43:35.453Z,13.68
2022-08-25T06:46:14.084Z,13.70
2022-08-25T06:48:41.209Z,13.71
2022-08-25T06:51:10.629Z,13.72
2022-08-25T06:53:41.647Z,13.76
2022-08-25T06:56:09.215Z,13.81
2022-08-25T06:58:38.320Z,13.84
2022-08-25T07:01:22.600Z,13.87
2022-08-25T07:03:57.542Z,13.87
2022-08-25T07:06:26.013Z,13.89
2022-08-25T07:08:53.220Z,13.92
2022-08-25T07:11:22.997Z,13.95
2022-08-25T07:13:51.389Z,13.98
2022-08-25T07:16:20.623Z,14.00
2022-08-25T07:18:48.350Z,14.06
2022-08-25T07:21:16.133Z,14.16
2022-08-25T07:23:43.339Z,14.34
2022-08-25T07:26:36.337Z,14.62
2022-08-25T07:29:08.399Z,14.81
2022-08-25T07:31:35.523Z,14.91
2022-08-25T07:34:21.202Z,15.02
2022-08-25T07:36:48.237Z,15.12
2022-08-25T07:39:15.026Z,15.17
2022-08-25T07:41:42.495Z,15.25
2022-08-25T07:44:12.198Z,15.34
2022-08-25T07:46:40.135Z,15.37
2022-08-25T07:49:16.415Z,15.29
2022-08-25T07:52:04.112Z,15.17
2022-08-25T07:54:33.953Z,15.10
2022-08-25T07:57:05.970Z,15.12
2022-08-25T07:59:39.741Z,15.08
2022-08-25T08:02:18.617Z,15.04
2022-08-25T08:04:48.947Z,14.95
2022-08-25T08:07:19.196Z,15.00
2022-08-25T08:09:46.846Z,15.06
2022-08-25T08:12:13.843Z,15.04
2022-08-25T08:14:44.981Z,15.07
2022-08-25T08:17:13.779Z,15.12
2022-08-25T08:19:44.812Z,15.18
2022-08-25T08:22:15.348Z,15.30
2022-08-25T08:24:54.811Z,15.44
2022-08-25T08:27:23.639Z,15.58
2022-08-25T08:29:50.492Z,15.71
2022-08-25T08:32:18.555Z,15.89
2022-08-25T08:34:51.265Z,15.86
2022-08-25T08:37:22.830Z,15.91
2022-08-25T08:39:52.842Z,16.08
2022-08-25T08:42:32.353Z,16.19
2022-08-25T08:45:09.473Z,16.30
2022-08-25T08:48:23.620Z,16.45
2022-08-25T08:51:23.147Z,16.56
2022-08-25T08:54:15.878Z,16.63
2022-08-25T08:56:48.546Z,16.83
2022-08-25T08:59:30.754Z,17.15
2022-08-25T09:02:04.345Z,17.37
2022-08-25T09:04:40.545Z,17.39
2022-08-25T09:07:13.166Z,17.48
2022-08-25T09:09:42.511Z,17.74
2022-08-25T09:12:12.159Z,17.92
2022-08-25T09:15:03.127Z,18.19
2022-08-25T09:18:17.132Z,18.15
2022-08-25T09:21:21.550Z,17.73
2022-08-25T09:24:14.130Z,17.96
2022-08-25T09:27:06.957Z,18.12
2022-08-25T09:29:49.256Z,18.38
2022-08-25T09:32:24.130Z,18.48
2022-08-25T09:35:01.383Z,18.66
2022-08-25T09:37:28.998Z,18.85
2022-08-25T09:39:55.908Z,18.93
2022-08-25T09:42:51.547Z,19.00
2022-08-25T09:45:35.061Z,19.20
2022-08-25T09:48:03.096Z,19.41
2022-08-25T09:50:34.860Z,19.50
2022-08-25T09:53:17.463Z,19.69
2022-08-25T09:55:59.864Z,19.72
2022-08-25T09:58:27.893Z,19.82
2022-08-25T10:01:19.793Z,19.84
2022-08-25T10:03:57.635Z,19.94
2022-08-25T10:06:26.045Z,20.17
2022-08-25T10:08:58.172Z,20.26
2022-08-25T10:11:42.590Z,20.37
2022-08-25T10:14:36.589Z,20.60
2022-08-25T10:17:29.504Z,20.81
2022-08-25T10:20:12.283Z,20.98
2022-08-25T10:22:42.614Z,20.97
2022-08-25T10:25:12.458Z,21.03
2022-08-25T10:28:26.506Z,21.12
2022-08-25T10:31:06.512Z,20.67
2022-08-25T10:34:01.599Z,20.80
2022-08-25T10:36:38.405Z,20.94
2022-08-25T10:39:34.668Z,21.13
2022-08-25T10:42:30.299Z,21.39
2022-08-25T10:45:32.000Z,21.54
2022-08-25T10:48:13.294Z,21.63
2022-08-25T10:50:54.945Z,21.72
2022-08-25T10:53:34.732Z,21.60
2022-08-25T10:56:08.254Z,21.88
2022-08-25T10:59:22.610Z,22.10
2022-08-25T11:02:08.070Z,21.87
2022-08-25T11:04:51.839Z,21.72
2022-08-25T11:08:12.073Z,21.75
2022-08-25T11:11:13.768Z,21.92
2022-08-25T11:13:53.291Z,22.79
2022-08-25T11:16:35.247Z,23.38
2022-08-25T11:19:29.060Z,23.74
2022-08-25T11:22:19.335Z,23.46
2022-08-25T11:25:10.198Z,23.15
2022-08-25T11:27:41.996Z,23.82
2022-08-25T11:30:14.683Z,24.35
2022-08-25T11:32:47.099Z,24.97
2022-08-25T11:35:14.822Z,25.83
2022-08-25T11:37:59.668Z,26.73
2022-08-25T11:41:02.016Z,26.44
2022-08-25T11:44:00.119Z,25.55
2022-08-25T11:46:39.670Z,24.43
2022-08-25T11:49:44.234Z,23.77
2022-08-25T11:52:34.656Z,23.12
2022-08-25T11:55:26.499Z,22.80
2022-08-25T11:58:28.273Z,22.64
2022-08-25T12:00:59.882Z,23.64
2022-08-25T12:03:32.638Z,24.90
2022-08-25T12:06:14.839Z,26.53
2022-08-25T12:09:04.317Z,27.76
2022-08-25T12:11:58.546Z,28.57
2022-08-25T12:14:28.260Z,29.19
2022-08-25T12:16:55.312Z,28.75
2022-08-25T12:19:26.979Z,27.48
2022-08-25T12:22:03.398Z,26.17
2022-08-25T12:24:47.597Z,25.45
2022-08-25T12:27:33.576Z,24.78
2022-08-25T12:30:18.595Z,24.28
2022-08-25T12:33:08.047Z,23.82
2022-08-25T12:36:07.471Z,23.54
2022-08-25T12:38:52.152Z,23.58
2022-08-25T12:41:26.643Z,23.79
2022-08-25T12:44:09.948Z,24.27
2022-08-25T12:46:39.577Z,24.19
2022-08-25T12:49:15.514Z,24.19
2022-08-25T12:51:57.454Z,24.09
2022-08-25T12:54:52.295Z,23.78
2022-08-25T12:57:42.031Z,23.38
2022-08-25T13:00:16.283Z,23.23
2022-08-25T13:02:56.313Z,23.26
2022-08-25T13:05:26.001Z,23.32
2022-08-25T13:08:33.748Z,23.12
2022-08-25T13:11:25.221Z,22.97
2022-08-25T13:14:02.070Z,23.99
2022-08-25T13:16:30.455Z,26.73
2022-08-25T13:19:01.703Z,28.14
2022-08-25T13:21:38.454Z,29.44
2022-08-25T13:24:28.104Z,31.47
2022-08-25T13:26:57.987Z,32.62
2022-08-25T13:29:35.842Z,33.27
2022-08-25T13:32:09.297Z,33.92
2022-08-25T13:34:42.523Z,34.47
2022-08-25T13:37:31.343Z,35.27
2022-08-25T13:40:33.452Z,36.29
2022-08-25T13:43:07.832Z,35.30
2022-08-25T13:45:41.866Z,33.00
2022-08-25T13:48:23.090Z,30.90
2022-08-25T13:50:53.118Z,29.52
2022-08-25T13:53:25.575Z,28.68
2022-08-25T13:55:57.174Z,28.23
2022-08-25T13:58:38.859Z,29.11
2022-08-25T14:01:48.051Z,30.98
2022-08-25T14:04:26.266Z,32.19
2022-08-25T14:07:22.722Z,31.46
2022-08-25T14:10:00.949Z,32.07
2022-08-25T14:12:38.118Z,32.37
2022-08-25T14:15:33.899Z,34.83
2022-08-25T14:18:21.695Z,33.26
2022-08-25T14:20:56.494Z,31.85
2022-08-25T14:23:30.818Z,30.72
2022-08-25T14:25:58.786Z,29.95
2022-08-25T14:28:32.029Z,32.61
2022-08-25T14:31:28.132Z,35.76
2022-08-25T14:33:59.933Z,37.51
2022-08-25T14:36:30.330Z,35.63
2022-08-25T14:38:57.904Z,34.77
2022-08-25T14:41:26.685Z,34.47
2022-08-25T14:43:54.217Z,37.10
2022-08-25T14:46:27.068Z,37.42
2022-08-25T14:49:01.031Z,36.49
2022-08-25T14:51:32.654Z,35.32
2022-08-25T14:54:06.192Z,35.62
2022-08-25T14:56:34.188Z,36.47
2022-08-25T14:59:01.516Z,34.73
2022-08-25T15:01:32.044Z,33.46
2022-08-25T15:04:05.659Z,31.54
2022-08-25T15:06:35.612Z,30.11
2022-08-25T15:09:12.882Z,29.10
2022-08-25T15:11:45.914Z,28.09
2022-08-25T15:14:15.892Z,27.35
2022-08-25T15:16:51.394Z,26.55
2022-08-25T15:19:20.608Z,26.13
2022-08-25T15:21:48.546Z,25.79
2022-08-25T15:24:17.680Z,25.46
2022-08-25T15:26:56.428Z,25.05
2022-08-25T15:29:27.469Z,24.70
2022-08-25T15:31:54.313Z,24.56
2022-08-25T15:34:21.565Z,24.44
2022-08-25T15:36:48.726Z,24.39
2022-08-25T15:39:18.870Z,24.39
2022-08-25T15:41:49.710Z,24.40
2022-08-25T15:44:16.716Z,24.39
2022-08-25T15:46:47.168Z,24.28
2022-08-25T15:49:20.744Z,24.26
2022-08-25T15:51:54.813Z,24.27
2022-08-25T15:54:23.513Z,24.35
2022-08-25T15:56:50.585Z,24.47
2022-08-25T15:59:19.136Z,24.42
2022-08-25T16:01:53.748Z,24.29
2022-08-25T16:04:26.415Z,24.16
2022-08-25T16:06:54.031Z,24.00
2022-08-25T16:09:23.553Z,24.02
2022-08-25T16:11:55.636Z,24.22
2022-08-25T16:14:24.088Z,24.36
2022-08-25T16:16:51.712Z,24.29
2022-08-25T16:19:18.793Z,24.28
2022-08-25T16:21:47.566Z,24.16
2022-08-25T16:24:14.713Z,24.14
2022-08-25T16:26:48.006Z,24.15
2022-08-25T16:29:16.488Z,23.95
2022-08-25T16:31:43.926Z,23.89
2022-08-25T16:34:10.731Z,23.78
2022-08-25T16:36:39.993Z,23.62
2022-08-25T16:39:10.013Z,23.45
2022-08-25T16:41:37.432Z,23.43
2022-08-25T16:44:11.198Z,23.45
2022-08-25T16:46:40.793Z,23.28
2022-08-25T16:49:09.347Z,23.17
2022-08-25T16:51:39.037Z,22.96
2022-08-25T16:54:26.253Z,22.91
2022-08-25T16:56:54.953Z,22.86
2022-08-25T16:59:23.448Z,22.86
2022-08-25T17:01:52.282Z,22.85
2022-08-25T17:04:19.537Z,22.89
2022-08-25T17:06:51.547Z,22.92
2022-08-25T17:09:23.006Z,22.84
2022-08-25T17:11:54.338Z,22.75
2022-08-25T17:14:21.979Z,22.74
2022-08-25T17:16:51.212Z,22.79
2022-08-25T17:19:18.590Z,22.76
2022-08-25T17:21:46.462Z,22.68
2022-08-25T17:24:14.500Z,22.79
2022-08-25T17:26:42.484Z,22.85
2022-08-25T17:29:10.462Z,22.79
2022-08-25T17:31:40.013Z,22.61
2022-08-25T17:34:09.579Z,22.43
2022-08-25T17:36:37.235Z,22.29
2022-08-25T17:39:05.407Z,22.24
2022-08-25T17:41:33.458Z,22.22
2022-08-25T17:44:04.942Z,22.20
2022-08-25T17:46:32.258Z,22.26
2022-08-25T17:48:59.227Z,22.37
2022-08-25T17:51:26.292Z,22.61
2022-08-25T17:53:57.169Z,22.81
2022-08-25T17:56:27.808Z,22.82
2022-08-25T17:58:56.299Z,22.79
2022-08-25T18:01:29.352Z,22.80
2022-08-25T18:03:58.972Z,22.67
2022-08-25T18:06:27.389Z,22.53
2022-08-25T18:08:59.939Z,22.35
2022-08-25T18:11:28.870Z,22.20
2022-08-25T18:13:57.572Z,21.99
2022-08-25T18:16:25.119Z,21.88
2022-08-25T18:18:52.808Z,21.83
2022-08-25T18:21:21.378Z,21.78
2022-08-25T18:23:50.471Z,21.70
2022-08-25T18:26:24.747Z,21.65
2022-08-25T18:28:56.266Z,21.63
2022-08-25T18:31:23.604Z,21.60
2022-08-25T18:33:51.150Z,21.54
2022-08-25T18:36:21.011Z,21.54
2022-08-25T18:39:07.525Z,21.42
2022-08-25T18:41:39.084Z,21.41
2022-08-25T18:44:07.472Z,21.37
2022-08-25T18:46:35.059Z,21.34
2022-08-25T18:49:02.964Z,21.28
2022-08-25T18:51:33.041Z,21.26
2022-08-25T18:54:01.485Z,21.23
2022-08-25T18:56:28.952Z,21.17
2022-08-25T18:58:56.054Z,21.13
2022-08-25T19:01:23.397Z,21.05
2022-08-25T19:03:50.639Z,20.92
2022-08-25T19:06:17.691Z,20.91
2022-08-25T19:08:46.015Z,20.91
2022-08-25T19:11:13.111Z,20.88
2022-08-25T19:13:40.546Z,20.81
2022-08-25T19:16:32.208Z,20.79
2022-08-25T19:19:03.630Z,20.78
2022-08-25T19:21:31.285Z,20.78
2022-08-25T19:23:59.932Z,20.77
2022-08-25T19:26:27.288Z,20.73
2022-08-25T19:28:54.170Z,20.68
2022-08-25T19:31:23.444Z,20.66
2022-08-25T19:33:52.673Z,20.59
2022-08-25T19:36:27.866Z,20.55
2022-08-25T19:38:58.332Z,20.48
2022-08-25T19:41:26.591Z,20.45
2022-08-25T19:43:57.048Z,20.42
2022-08-25T19:46:32.897Z,20.39
2022-08-25T19:49:09.168Z,20.39
2022-08-25T19:51:45.659Z,20.36
2022-08-25T19:54:16.474Z,20.35
2022-08-25T19:56:54.244Z,20.33
2022-08-25T19:59:25.843Z,20.34
2022-08-25T20:01:53.151Z,20.32
2022-08-25T20:04:20.261Z,20.31
2022-08-25T20:06:48.288Z,20.24
2022-08-25T20:09:21.146Z,20.20
2022-08-25T20:12:02.739Z,20.16
2022-08-25T20:14:29.862Z,20.10
2022-08-25T20:16:56.586Z,20.08
2022-08-25T20:19:23.375Z,19.98
2022-08-25T20:21:50.253Z,19.93
2022-08-25T20:24:36.167Z,19.94
2022-08-25T20:27:04.414Z,19.94
2022-08-25T20:29:31.884Z,19.95
2022-08-25T20:31:59.022Z,19.90
2022-08-25T20:34:28.987Z,19.83
2022-08-25T20:36:56.095Z,19.80
2022-08-25T20:39:24.626Z,19.80
2022-08-25T20:41:51.907Z,19.77
2022-08-25T20:44:19.428Z,19.75
2022-08-25T20:46:51.506Z,19.74
2022-08-25T20:49:20.294Z,19.67
2022-08-25T20:51:47.229Z,19.64
2022-08-25T20:54:17.543Z,19.62
2022-08-25T20:56:44.398Z,19.59
2022-08-25T20:59:12.937Z,19.57
2022-08-25T21:01:41.381Z,19.52
2022-08-25T21:04:11.290Z,19.48
2022-08-25T21:06:41.574Z,19.46
2022-08-25T21:09:15.678Z,19.46
2022-08-25T21:11:43.592Z,19.44
2022-08-25T21:14:12.935Z,19.39
2022-08-25T21:16:41.088Z,19.41
2022-08-25T21:19:11.100Z,19.34
2022-08-25T21:21:40.066Z,19.34
2022-08-25T21:24:09.736Z,19.36
2022-08-25T21:26:48.937Z,19.38
2022-08-25T21:29:17.445Z,19.34
2022-08-25T21:31:45.724Z,19.37
2022-08-25T21:34:13.684Z,19.37
2022-08-25T21:36:42.188Z,19.33
2022-08-25T21:39:09.921Z,19.29
2022-08-25T21:41:39.480Z,19.26
2022-08-25T21:44:07.664Z,19.25
2022-08-25T21:46:36.484Z,19.22
2022-08-25T21:49:05.882Z,19.17
2022-08-25T21:51:40.674Z,19.12
2022-08-25T21:54:11.549Z,19.08
2022-08-25T21:56:49.724Z,19.05
2022-08-25T21:59:21.045Z,19.01
2022-08-25T22:01:47.815Z,18.96
2022-08-25T22:04:15.797Z,18.98
2022-08-25T22:06:42.704Z,19.00
2022-08-25T22:09:12.847Z,19.00
2022-08-25T22:11:42.703Z,18.98
2022-08-25T22:14:10.514Z,19.01
2022-08-25T22:16:38.592Z,18.99
2022-08-25T22:19:08.480Z,18.98
2022-08-25T22:21:36.420Z,18.96
2022-08-25T22:24:03.711Z,18.95
2022-08-25T22:26:32.258Z,18.92
2022-08-25T22:29:00.793Z,18.89
2022-08-25T22:31:28.529Z,18.86
2022-08-25T22:33:57.748Z,18.82
2022-08-25T22:36:34.746Z,18.81
2022-08-25T22:39:02.954Z,18.79
2022-08-25T22:41:31.596Z,18.75
2022-08-25T22:44:00.474Z,18.75
2022-08-25T22:46:32.573Z,18.73
2022-08-25T22:49:00.218Z,18.72
2022-08-25T22:51:31.627Z,18.72
2022-08-25T22:54:00.553Z,18.74
2022-08-25T22:56:34.767Z,18.69
2022-08-25T22:59:10.033Z,18.68
2022-08-25T23:01:38.342Z,18.71
2022-08-25T23:04:07.411Z,18.74
2022-08-25T23:06:36.909Z,18.74
2022-08-25T23:09:06.701Z,18.79
2022-08-25T23:11:35.788Z,18.83
2022-08-25T23:14:08.397Z,18.77
2022-08-25T23:16:35.203Z,18.75
2022-08-25T23:19:02.223Z,18.69
2022-08-25T23:21:47.951Z,18.71
2022-08-25T23:24:29.555Z,18.68
2022-08-25T23:27:02.029Z,18.70
2022-08-25T23:29:30.222Z,18.72
2022-08-25T23:31:57.774Z,18.73
2022-08-25T23:34:25.456Z,18.74
2022-08-25T23:36:52.663Z,18.74
2022-08-25T23:39:21.706Z,18.74
2022-08-25T23:41:50.252Z,18.73
2022-08-25T23:44:18.068Z,18.70
2022-08-25T23:46:47.333Z,18.70
2022-08-25T23:49:18.196Z,18.67
2022-08-25T23:51:46.977Z,18.62
2022-08-25T23:54:13.985Z,18.61
2022-08-25T23:56:44.797Z,18.60
2022-08-25T23:59:24.480Z,18.59
